createdAt,value
2023-03-20T14:29:11.585Z,12.07
2023-03-20T14:32:14.967Z,11.96
2023-03-20T14:35:21.338Z,11.90
2023-03-20T14:38:22.757Z,11.90
2023-03-20T14:41:26.872Z,11.95
2023-03-20T14:44:38.528Z,11.98
2023-03-20T14:47:43.917Z,12.06
2023-03-20T14:50:39.769Z,12.09
2023-03-20T14:53:27.237Z,12.12
2023-03-20T14:56:15.435Z,12.18
2023-03-20T14:59:10.742Z,12.20
2023-03-20T15:01:59.444Z,12.17
2023-03-20T15:04:44.975Z,12.14
2023-03-20T15:07:35.751Z,12.12
2023-03-20T15:10:21.352Z,12.09
2023-03-20T15:13:07.992Z,12.04
2023-03-20T15:15:58.678Z,12.04
2023-03-20T15:18:47.265Z,12.07
2023-03-20T15:21:34.376Z,12.14
2023-03-20T15:24:25.251Z,12.29
2023-03-20T15:27:13.009Z,12.33
2023-03-20T15:30:01.026Z,12.29
2023-03-20T15:32:49.028Z,12.22
2023-03-20T15:35:34.321Z,12.16
2023-03-20T15:38:20.194Z,12.17
2023-03-20T15:41:07.786Z,12.18
2023-03-20T15:43:53.442Z,12.19
2023-03-20T15:46:38.616Z,12.18
2023-03-20T15:49:24.872Z,12.16
2023-03-20T15:52:38.069Z,12.18
2023-03-20T15:55:24.720Z,12.19
2023-03-20T15:58:14.109Z,12.19
2023-03-20T16:01:01.053Z,12.26
2023-03-20T16:03:46.662Z,12.31
2023-03-20T16:06:32.155Z,12.33
2023-03-20T16:09:17.614Z,12.35
2023-03-20T16:12:03.297Z,12.25
2023-03-20T16:14:51.273Z,12.14
2023-03-20T16:17:36.801Z,12.04
2023-03-20T16:20:23.820Z,12.03
2023-03-20T16:23:09.931Z,12.04
2023-03-20T16:25:59.238Z,12.01
2023-03-20T16:28:50.649Z,11.97
2023-03-20T16:31:37.352Z,11.89
2023-03-20T16:34:27.163Z,11.86
2023-03-20T16:37:28.845Z,11.78
2023-03-20T16:40:42.203Z,11.76
2023-03-20T16:43:31.549Z,11.75
2023-03-20T16:46:22.796Z,11.71
2023-03-20T16:49:32.208Z,11.65
2023-03-20T16:52:23.934Z,11.59
2023-03-20T16:55:26.823Z,11.57
2023-03-20T16:58:29.861Z,11.55
2023-03-20T17:01:21.651Z,11.55
2023-03-20T17:04:23.361Z,11.55
2023-03-20T17:07:23.758Z,11.48
2023-03-20T17:10:18.027Z,11.44
2023-03-20T17:13:03.529Z,11.43
2023-03-20T17:15:49.186Z,11.40
2023-03-20T17:18:36.125Z,11.40
2023-03-20T17:21:21.635Z,11.38
2023-03-20T17:24:07.069Z,11.39
2023-03-20T17:26:58.136Z,11.36
2023-03-20T17:29:44.303Z,11.37
2023-03-20T17:32:29.879Z,11.37
2023-03-20T17:35:15.557Z,11.32
2023-03-20T17:38:01.316Z,11.31
2023-03-20T17:40:47.487Z,11.34
2023-03-20T17:43:33.200Z,11.35
2023-03-20T17:46:28.393Z,11.36
2023-03-20T17:49:15.628Z,11.37
2023-03-20T17:52:00.999Z,11.37
2023-03-20T17:54:47.001Z,11.33
2023-03-20T17:57:37.787Z,11.32
2023-03-20T18:00:24.482Z,11.30
2023-03-20T18:03:10.583Z,11.29
2023-03-20T18:05:56.489Z,11.27
2023-03-20T18:08:41.565Z,11.25
2023-03-20T18:11:27.961Z,11.26
2023-03-20T18:14:17.798Z,11.25
2023-03-20T18:17:03.847Z,11.25
2023-03-20T18:19:48.943Z,11.24
2023-03-20T18:22:34.544Z,11.22
2023-03-20T18:25:19.687Z,11.24
2023-03-20T18:28:07.743Z,11.23
2023-03-20T18:30:53.523Z,11.20
2023-03-20T18:33:39.052Z,11.21
2023-03-20T18:36:25.257Z,11.23
2023-03-20T18:39:16.781Z,11.26
2023-03-20T18:42:02.225Z,11.26
2023-03-20T18:44:47.799Z,11.27
2023-03-20T18:47:33.251Z,11.27
2023-03-20T18:50:28.512Z,11.29
2023-03-20T18:53:13.609Z,11.25
2023-03-20T18:56:00.599Z,11.23
2023-03-20T18:58:46.838Z,11.22
2023-03-20T19:01:33.188Z,11.24
2023-03-20T19:04:19.320Z,11.25
2023-03-20T19:07:04.537Z,11.23
2023-03-20T19:09:49.583Z,11.21
2023-03-20T19:12:35.343Z,11.23
2023-03-20T19:15:21.500Z,11.22
2023-03-20T19:18:15.445Z,11.22
2023-03-20T19:21:01.126Z,11.22
2023-03-20T19:23:46.464Z,11.17
2023-03-20T19:26:33.399Z,11.16
2023-03-20T19:29:18.835Z,11.17
2023-03-20T19:32:04.324Z,11.13
2023-03-20T19:35:38.949Z,11.12
2023-03-20T19:37:55.811Z,11.12
2023-03-20T19:40:47.192Z,11.15
2023-03-20T19:43:32.630Z,11.12
2023-03-20T19:46:32.179Z,11.05
2023-03-20T19:49:30.457Z,10.99
2023-03-20T19:52:31.903Z,10.98
2023-03-20T19:55:17.634Z,10.98
2023-03-20T19:58:04.690Z,10.94
2023-03-20T20:00:59.246Z,10.94
2023-03-20T20:03:58.923Z,10.87
2023-03-20T20:06:47.258Z,10.86
2023-03-20T20:09:32.930Z,10.86
2023-03-20T20:12:18.293Z,10.86
2023-03-20T20:15:03.803Z,10.85
2023-03-20T20:17:49.135Z,10.87
2023-03-20T20:20:36.007Z,10.90
2023-03-20T20:23:27.504Z,10.90
2023-03-20T20:26:12.982Z,10.86
2023-03-20T20:28:59.526Z,10.81
2023-03-20T20:31:44.866Z,10.78
2023-03-20T20:40:44.534Z,10.76
2023-03-20T20:43:59.583Z,10.70
2023-03-20T20:46:35.461Z,10.68
2023-03-20T20:49:21.150Z,10.70
2023-03-20T20:52:06.801Z,10.66
2023-03-20T20:54:51.931Z,10.65
2023-03-20T20:57:37.549Z,10.66
2023-03-20T21:00:37.095Z,10.64
2023-03-20T21:03:28.881Z,10.65
2023-03-20T21:06:14.303Z,10.63
2023-03-20T21:08:59.514Z,10.62
2023-03-20T21:11:44.924Z,10.57
2023-03-20T21:14:30.752Z,10.55
2023-03-20T21:17:16.695Z,10.57
2023-03-20T21:20:02.362Z,10.58
2023-03-20T21:22:47.667Z,10.59
2023-03-20T21:25:40.762Z,10.60
2023-03-20T21:28:27.539Z,10.55
2023-03-20T21:31:26.204Z,10.55
2023-03-20T21:34:14.077Z,10.58
2023-03-20T21:37:00.125Z,10.58
2023-03-20T21:39:51.253Z,10.58
2023-03-20T21:42:37.003Z,10.61
2023-03-20T21:49:10.043Z,10.60
2023-03-20T22:01:29.780Z,10.58
2023-03-20T22:17:19.887Z,10.54
2023-03-20T22:20:09.165Z,10.51
2023-03-20T22:29:24.291Z,10.51
2023-03-20T22:35:41.869Z,10.51
2023-03-20T22:47:17.264Z,10.38
2023-03-20T22:50:03.114Z,10.36
2023-03-20T22:52:49.848Z,10.34
2023-03-20T22:55:35.646Z,10.36
2023-03-20T22:58:21.146Z,10.38
2023-03-20T23:01:08.822Z,10.35
2023-03-20T23:03:53.893Z,10.38
2023-03-20T23:06:40.999Z,10.39
2023-03-20T23:09:26.082Z,10.39
2023-03-20T23:12:11.704Z,10.39
2023-03-20T23:14:57.539Z,10.39
2023-03-20T23:17:42.832Z,10.37
2023-03-20T23:20:28.469Z,10.38
2023-03-20T23:23:13.757Z,10.35
2023-03-20T23:26:20.842Z,10.32
2023-03-20T23:29:06.648Z,10.29
2023-03-20T23:31:52.022Z,10.27
2023-03-20T23:34:37.238Z,10.27
2023-03-20T23:37:22.482Z,10.27
2023-03-20T23:40:10.527Z,10.24
2023-03-20T23:42:55.929Z,10.20
2023-03-20T23:45:41.421Z,10.16
2023-03-20T23:48:26.945Z,10.19
2023-03-20T23:51:12.160Z,10.21
2023-03-20T23:53:57.520Z,10.22
2023-03-20T23:56:43.024Z,10.21
2023-03-20T23:59:29.835Z,10.20
